Main page
METAR-TAF:

METAR-TAF

Airports :

Municipal Airport

Plymouth, New Hampshire, United States

latitude: 43-46-45N, longitude: 071-45-13W, elevation: 505 ft

Current weather observation

The report was made 16 minutes ago, at 07:35 UTC
Wind 6 mph from the West
Temperature 57°F
Humidity 58%
Pressure 29.69 in. Hg
Visibility: 10 miles
Overcast at a height of 4000 ft

METAR: K1P1 210735Z AUTO 28005KT 10SM OVC040 14/06 A2969 RMK AO2 T01360060

Time: 03:51 (07:51 UTC)


TAF: missing

Weather observations and forecasts of more than 4000 airports (METAR and TAF reports).

The available stations are represented by yellow and red dots on the map.

Hover mouse over dot to see the name of the station.

Then click to see weather observations and forecasts.

To change the map : click on the green buttons with a black cross to zoom in, on the green button with a dash to zoom out, or on the green arrows for adjacent maps.


METAR-TAF: